sensor_id;sensor_type;location;lat;lon;timestamp;temperature;humidity
56336;DHT22;42241;53.510;10.170;2023-04-07T00:01:22;6.10;99.90
56336;DHT22;42241;53.510;10.170;2023-04-07T00:03:50;6.10;99.90
56336;DHT22;42241;53.510;10.170;2023-04-07T00:06:16;6.10;99.90
56336;DHT22;42241;53.510;10.170;2023-04-07T00:08:42;6.00;99.90
56336;DHT22;42241;53.510;10.170;2023-04-07T00:11:07;6.00;99.90
56336;DHT22;42241;53.510;10.170;2023-04-07T00:13:33;6.00;99.90
56336;DHT22;42241;53.510;10.170;2023-04-07T00:16:01;6.00;99.90
56336;DHT22;42241;53.510;10.170;2023-04-07T00:18:29;5.90;99.90
56336;DHT22;42241;53.510;10.170;2023-04-07T00:20:54;5.90;99.90
56336;DHT22;42241;53.510;10.170;2023-04-07T00:23:23;5.90;99.90
56336;DHT22;42241;53.510;10.170;2023-04-07T00:25:48;5.90;99.90
56336;DHT22;42241;53.510;10.170;2023-04-07T00:28:14;5.90;99.90
56336;DHT22;42241;53.510;10.170;2023-04-07T00:30:39;5.90;99.90
56336;DHT22;42241;53.510;10.170;2023-04-07T00:33:05;5.80;99.90
56336;DHT22;42241;53.510;10.170;2023-04-07T00:35:30;5.80;99.90
56336;DHT22;42241;53.510;10.170;2023-04-07T00:37:58;5.70;99.90
56336;DHT22;42241;53.510;10.170;2023-04-07T00:40:23;5.70;99.90
56336;DHT22;42241;53.510;10.170;2023-04-07T00:42:51;5.70;99.90
56336;DHT22;42241;53.510;10.170;2023-04-07T00:45:17;5.70;99.90
56336;DHT22;42241;53.510;10.170;2023-04-07T00:47:42;5.60;99.90
56336;DHT22;42241;53.510;10.170;2023-04-07T00:50:10;5.60;99.90
56336;DHT22;42241;53.510;10.170;2023-04-07T00:52:36;5.60;99.90
56336;DHT22;42241;53.510;10.170;2023-04-07T00:55:04;5.60;99.90
56336;DHT22;42241;53.510;10.170;2023-04-07T00:57:30;5.50;99.90
56336;DHT22;42241;53.510;10.170;2023-04-07T00:59:55;5.50;99.90
56336;DHT22;42241;53.510;10.170;2023-04-07T01:02:22;5.50;99.90
56336;DHT22;42241;53.510;10.170;2023-04-07T01:07:22;5.50;99.90
56336;DHT22;42241;53.510;10.170;2023-04-07T01:09:57;5.40;99.90
56336;DHT22;42241;53.510;10.170;2023-04-07T01:14:54;5.40;99.90
56336;DHT22;42241;53.510;10.170;2023-04-07T01:17:25;5.40;99.90
56336;DHT22;42241;53.510;10.170;2023-04-07T01:19:58;5.30;99.90
56336;DHT22;42241;53.510;10.170;2023-04-07T01:22:28;5.30;99.90
56336;DHT22;42241;53.510;10.170;2023-04-07T01:29:54;5.20;99.90
56336;DHT22;42241;53.510;10.170;2023-04-07T01:32:20;5.20;99.90
56336;DHT22;42241;53.510;10.170;2023-04-07T01:34:49;5.10;99.90
56336;DHT22;42241;53.510;10.170;2023-04-07T01:37:15;5.10;99.90
56336;DHT22;42241;53.510;10.170;2023-04-07T01:39:41;5.10;99.90
56336;DHT22;42241;53.510;10.170;2023-04-07T01:42:09;5.10;99.90
56336;DHT22;42241;53.510;10.170;2023-04-07T01:44:35;5.10;99.90
56336;DHT22;42241;53.510;10.170;2023-04-07T01:47:01;5.00;99.90
56336;DHT22;42241;53.510;10.170;2023-04-07T01:49:29;5.00;99.90
56336;DHT22;42241;53.510;10.170;2023-04-07T01:51:56;5.00;99.90
56336;DHT22;42241;53.510;10.170;2023-04-07T01:54:24;5.00;99.90
56336;DHT22;42241;53.510;10.170;2023-04-07T01:56:50;5.00;99.90
56336;DHT22;42241;53.510;10.170;2023-04-07T01:59:15;4.90;99.90
56336;DHT22;42241;53.510;10.170;2023-04-07T02:01:43;4.90;99.90
56336;DHT22;42241;53.510;10.170;2023-04-07T02:06:44;4.80;99.90
56336;DHT22;42241;53.510;10.170;2023-04-07T02:09:14;4.80;99.90
56336;DHT22;42241;53.510;10.170;2023-04-07T02:11:40;4.80;99.90
56336;DHT22;42241;53.510;10.170;2023-04-07T02:14:09;4.80;99.90
56336;DHT22;42241;53.510;10.170;2023-04-07T02:16:35;4.80;99.90
56336;DHT22;42241;53.510;10.170;2023-04-07T02:19:01;4.80;99.90
56336;DHT22;42241;53.510;10.170;2023-04-07T02:21:28;4.70;99.90
56336;DHT22;42241;53.510;10.170;2023-04-07T02:23:55;4.70;99.90
56336;DHT22;42241;53.510;10.170;2023-04-07T02:26:23;4.70;99.90
56336;DHT22;42241;53.510;10.170;2023-04-07T02:28:48;4.70;99.90
56336;DHT22;42241;53.510;10.170;2023-04-07T02:31:16;4.70;99.90
56336;DHT22;42241;53.510;10.170;2023-04-07T02:33:43;4.60;99.90
56336;DHT22;42241;53.510;10.170;2023-04-07T02:36:11;4.60;99.90
56336;DHT22;42241;53.510;10.170;2023-04-07T02:38:36;4.60;99.90
56336;DHT22;42241;53.510;10.170;2023-04-07T02:41:02;4.60;99.90
56336;DHT22;42241;53.510;10.170;2023-04-07T02:43:28;4.60;99.90
56336;DHT22;42241;53.510;10.170;2023-04-07T02:45:53;4.50;99.90
56336;DHT22;42241;53.510;10.170;2023-04-07T02:48:19;4.50;99.90
56336;DHT22;42241;53.510;10.170;2023-04-07T02:50:45;4.50;99.90
56336;DHT22;42241;53.510;10.170;2023-04-07T02:53:10;4.50;99.90
56336;DHT22;42241;53.510;10.170;2023-04-07T02:55:41;4.50;99.90
56336;DHT22;42241;53.510;10.170;2023-04-07T02:58:06;4.50;99.90
56336;DHT22;42241;53.510;10.170;2023-04-07T03:00:32;4.50;99.90
56336;DHT22;42241;53.510;10.170;2023-04-07T03:02:58;4.50;99.90
56336;DHT22;42241;53.510;10.170;2023-04-07T03:05:26;4.50;99.90
56336;DHT22;42241;53.510;10.170;2023-04-07T03:07:51;4.50;99.90
56336;DHT22;42241;53.510;10.170;2023-04-07T03:10:17;4.50;99.90
56336;DHT22;42241;53.510;10.170;2023-04-07T03:12:42;4.50;99.90
56336;DHT22;42241;53.510;10.170;2023-04-07T03:15:08;4.50;99.90
56336;DHT22;42241;53.510;10.170;2023-04-07T03:17:34;4.50;99.90
56336;DHT22;42241;53.510;10.170;2023-04-07T03:19:59;4.50;99.90
56336;DHT22;42241;53.510;10.170;2023-04-07T03:22:25;4.50;99.90
56336;DHT22;42241;53.510;10.170;2023-04-07T03:24:50;4.50;99.90
56336;DHT22;42241;53.510;10.170;2023-04-07T03:27:16;4.50;99.90
56336;DHT22;42241;53.510;10.170;2023-04-07T03:29:42;4.50;99.90
56336;DHT22;42241;53.510;10.170;2023-04-07T03:32:08;4.40;99.90
56336;DHT22;42241;53.510;10.170;2023-04-07T03:34:33;4.40;99.90
56336;DHT22;42241;53.510;10.170;2023-04-07T03:37:01;4.40;99.90
56336;DHT22;42241;53.510;10.170;2023-04-07T03:39:26;4.40;99.90
56336;DHT22;42241;53.510;10.170;2023-04-07T03:41:54;4.40;99.90
56336;DHT22;42241;53.510;10.170;2023-04-07T03:44:20;4.40;99.90
56336;DHT22;42241;53.510;10.170;2023-04-07T03:46:48;4.40;99.90
56336;DHT22;42241;53.510;10.170;2023-04-07T03:49:14;4.40;99.90
56336;DHT22;42241;53.510;10.170;2023-04-07T03:51:40;4.30;99.90
56336;DHT22;42241;53.510;10.170;2023-04-07T03:54:08;4.40;99.90
56336;DHT22;42241;53.510;10.170;2023-04-07T03:56:36;4.40;99.90
56336;DHT22;42241;53.510;10.170;2023-04-07T03:59:02;4.40;99.90
56336;DHT22;42241;53.510;10.170;2023-04-07T04:01:30;4.30;99.90
56336;DHT22;42241;53.510;10.170;2023-04-07T04:03:56;4.40;99.90
56336;DHT22;42241;53.510;10.170;2023-04-07T04:06:21;4.40;99.90
56336;DHT22;42241;53.510;10.170;2023-04-07T04:08:47;4.40;99.90
56336;DHT22;42241;53.510;10.170;2023-04-07T04:11:15;4.40;99.90
56336;DHT22;42241;53.510;10.170;2023-04-07T04:13:42;4.30;99.90
56336;DHT22;42241;53.510;10.170;2023-04-07T04:16:08;4.30;99.90
56336;DHT22;42241;53.510;10.170;2023-04-07T04:18:36;4.30;99.90
56336;DHT22;42241;53.510;10.170;2023-04-07T04:21:01;4.30;99.90
56336;DHT22;42241;53.510;10.170;2023-04-07T04:23:27;4.30;99.90
56336;DHT22;42241;53.510;10.170;2023-04-07T04:25:55;4.20;99.90
56336;DHT22;42241;53.510;10.170;2023-04-07T04:28:22;4.20;99.90
56336;DHT22;42241;53.510;10.170;2023-04-07T04:30:47;4.20;99.90
56336;DHT22;42241;53.510;10.170;2023-04-07T04:33:14;4.20;99.90
56336;DHT22;42241;53.510;10.170;2023-04-07T04:35:40;4.10;99.90
56336;DHT22;42241;53.510;10.170;2023-04-07T04:38:07;4.10;99.90
56336;DHT22;42241;53.510;10.170;2023-04-07T04:40:32;4.10;99.90
56336;DHT22;42241;53.510;10.170;2023-04-07T04:43:00;4.10;99.90
56336;DHT22;42241;53.510;10.170;2023-04-07T04:45:26;4.10;99.90
56336;DHT22;42241;53.510;10.170;2023-04-07T04:47:54;4.10;99.90
56336;DHT22;42241;53.510;10.170;2023-04-07T04:50:20;4.10;99.90
56336;DHT22;42241;53.510;10.170;2023-04-07T04:52:45;4.10;99.90
56336;DHT22;42241;53.510;10.170;2023-04-07T04:55:13;4.10;99.90
56336;DHT22;42241;53.510;10.170;2023-04-07T04:57:38;4.10;99.90
56336;DHT22;42241;53.510;10.170;2023-04-07T05:00:07;4.00;99.90
56336;DHT22;42241;53.510;10.170;2023-04-07T05:02:33;4.00;99.90
56336;DHT22;42241;53.510;10.170;2023-04-07T05:04:58;4.00;99.90
56336;DHT22;42241;53.510;10.170;2023-04-07T05:07:24;4.00;99.90
56336;DHT22;42241;53.510;10.170;2023-04-07T05:09:49;4.00;99.90
56336;DHT22;42241;53.510;10.170;2023-04-07T05:12:15;4.10;99.90
56336;DHT22;42241;53.510;10.170;2023-04-07T05:14:43;4.00;99.90
56336;DHT22;42241;53.510;10.170;2023-04-07T05:17:08;4.00;99.90
56336;DHT22;42241;53.510;10.170;2023-04-07T05:19:34;4.00;99.90
56336;DHT22;42241;53.510;10.170;2023-04-07T05:22:02;4.10;99.90
56336;DHT22;42241;53.510;10.170;2023-04-07T05:24:28;4.10;99.90
56336;DHT22;42241;53.510;10.170;2023-04-07T05:26:54;4.10;99.90
56336;DHT22;42241;53.510;10.170;2023-04-07T05:29:21;4.20;99.90
56336;DHT22;42241;53.510;10.170;2023-04-07T05:31:47;4.20;99.90
56336;DHT22;42241;53.510;10.170;2023-04-07T05:34:15;4.30;99.90
56336;DHT22;42241;53.510;10.170;2023-04-07T05:36:40;4.30;99.90
56336;DHT22;42241;53.510;10.170;2023-04-07T05:39:08;4.30;99.90
56336;DHT22;42241;53.510;10.170;2023-04-07T05:41:33;4.40;99.90
56336;DHT22;42241;53.510;10.170;2023-04-07T05:44:04;4.40;99.90
56336;DHT22;42241;53.510;10.170;2023-04-07T05:46:30;4.50;99.90
56336;DHT22;42241;53.510;10.170;2023-04-07T05:48:56;4.50;99.90
56336;DHT22;42241;53.510;10.170;2023-04-07T05:51:24;4.50;99.90
56336;DHT22;42241;53.510;10.170;2023-04-07T05:53:51;4.60;99.90
56336;DHT22;42241;53.510;10.170;2023-04-07T05:56:19;4.60;99.90
56336;DHT22;42241;53.510;10.170;2023-04-07T05:58:48;4.70;99.90
56336;DHT22;42241;53.510;10.170;2023-04-07T06:01:13;4.70;99.90
56336;DHT22;42241;53.510;10.170;2023-04-07T06:03:39;4.70;99.90
56336;DHT22;42241;53.510;10.170;2023-04-07T06:06:07;4.80;99.90
56336;DHT22;42241;53.510;10.170;2023-04-07T06:08:35;4.90;99.90
56336;DHT22;42241;53.510;10.170;2023-04-07T06:11:01;5.00;99.90
56336;DHT22;42241;53.510;10.170;2023-04-07T06:13:26;5.00;99.90
56336;DHT22;42241;53.510;10.170;2023-04-07T06:15:56;5.20;99.90
56336;DHT22;42241;53.510;10.170;2023-04-07T06:18:22;5.20;99.90
56336;DHT22;42241;53.510;10.170;2023-04-07T06:20:50;5.30;99.90
56336;DHT22;42241;53.510;10.170;2023-04-07T06:23:15;5.40;99.90
56336;DHT22;42241;53.510;10.170;2023-04-07T06:25:41;5.50;99.90
56336;DHT22;42241;53.510;10.170;2023-04-07T06:28:06;5.60;99.90
56336;DHT22;42241;53.510;10.170;2023-04-07T06:30:32;5.70;99.90
56336;DHT22;42241;53.510;10.170;2023-04-07T06:32:58;5.70;99.90
56336;DHT22;42241;53.510;10.170;2023-04-07T06:35:24;5.80;99.90
56336;DHT22;42241;53.510;10.170;2023-04-07T06:37:51;5.80;99.90
56336;DHT22;42241;53.510;10.170;2023-04-07T06:40:16;5.90;99.90
56336;DHT22;42241;53.510;10.170;2023-04-07T06:42:47;6.10;99.90
56336;DHT22;42241;53.510;10.170;2023-04-07T06:45:12;6.10;99.90
56336;DHT22;42241;53.510;10.170;2023-04-07T06:47:42;6.20;99.90
56336;DHT22;42241;53.510;10.170;2023-04-07T06:50:07;6.30;99.90
56336;DHT22;42241;53.510;10.170;2023-04-07T06:52:33;6.40;99.90
56336;DHT22;42241;53.510;10.170;2023-04-07T06:54:59;6.50;99.90
56336;DHT22;42241;53.510;10.170;2023-04-07T06:57:24;6.60;99.90
56336;DHT22;42241;53.510;10.170;2023-04-07T06:59:50;6.70;99.90
56336;DHT22;42241;53.510;10.170;2023-04-07T07:02:17;6.70;99.90
56336;DHT22;42241;53.510;10.170;2023-04-07T07:04:43;6.80;99.90
56336;DHT22;42241;53.510;10.170;2023-04-07T07:07:08;6.90;99.90
56336;DHT22;42241;53.510;10.170;2023-04-07T07:09:34;7.00;99.90
56336;DHT22;42241;53.510;10.170;2023-04-07T07:12:02;7.20;99.90
56336;DHT22;42241;53.510;10.170;2023-04-07T07:14:30;7.30;99.90
56336;DHT22;42241;53.510;10.170;2023-04-07T07:16:56;7.40;99.90
56336;DHT22;42241;53.510;10.170;2023-04-07T07:19:21;7.50;99.90
56336;DHT22;42241;53.510;10.170;2023-04-07T07:21:49;7.50;99.90
56336;DHT22;42241;53.510;10.170;2023-04-07T07:24:16;7.60;99.90
56336;DHT22;42241;53.510;10.170;2023-04-07T07:26:41;7.60;99.90
56336;DHT22;42241;53.510;10.170;2023-04-07T07:29:07;7.70;99.90
56336;DHT22;42241;53.510;10.170;2023-04-07T07:31:32;7.80;99.90
56336;DHT22;42241;53.510;10.170;2023-04-07T07:33:58;8.00;99.90
56336;DHT22;42241;53.510;10.170;2023-04-07T07:36:24;8.00;99.90
56336;DHT22;42241;53.510;10.170;2023-04-07T07:38:50;8.20;99.90
56336;DHT22;42241;53.510;10.170;2023-04-07T07:41:16;8.40;99.90
56336;DHT22;42241;53.510;10.170;2023-04-07T07:43:41;8.60;99.90
56336;DHT22;42241;53.510;10.170;2023-04-07T07:46:08;9.20;99.90
56336;DHT22;42241;53.510;10.170;2023-04-07T07:48:36;9.80;99.90
56336;DHT22;42241;53.510;10.170;2023-04-07T07:51:04;10.60;98.80
56336;DHT22;42241;53.510;10.170;2023-04-07T07:53:32;11.30;96.80
56336;DHT22;42241;53.510;10.170;2023-04-07T07:55:58;12.10;92.70
56336;DHT22;42241;53.510;10.170;2023-04-07T07:58:26;12.90;90.80
56336;DHT22;42241;53.510;10.170;2023-04-07T08:00:51;13.60;80.60
56336;DHT22;42241;53.510;10.170;2023-04-07T08:03:17;14.60;78.50
56336;DHT22;42241;53.510;10.170;2023-04-07T08:05:44;14.80;69.90
56336;DHT22;42241;53.510;10.170;2023-04-07T08:08:13;15.10;65.60
56336;DHT22;42241;53.510;10.170;2023-04-07T08:10:38;15.40;61.50
56336;DHT22;42241;53.510;10.170;2023-04-07T08:13:04;15.30;61.20
56336;DHT22;42241;53.510;10.170;2023-04-07T08:15:32;15.30;59.90
56336;DHT22;42241;53.510;10.170;2023-04-07T08:17:57;15.70;58.70
56336;DHT22;42241;53.510;10.170;2023-04-07T08:20:25;16.50;58.30
56336;DHT22;42241;53.510;10.170;2023-04-07T08:22:53;17.40;55.30
56336;DHT22;42241;53.510;10.170;2023-04-07T08:25:21;17.60;52.10
56336;DHT22;42241;53.510;10.170;2023-04-07T08:27:46;18.00;49.70
56336;DHT22;42241;53.510;10.170;2023-04-07T08:30:12;17.10;48.10
56336;DHT22;42241;53.510;10.170;2023-04-07T08:32:38;16.20;50.70
56336;DHT22;42241;53.510;10.170;2023-04-07T08:35:07;16.40;51.80
56336;DHT22;42241;53.510;10.170;2023-04-07T08:37:35;16.80;51.40
56336;DHT22;42241;53.510;10.170;2023-04-07T08:40:01;17.10;50.80
56336;DHT22;42241;53.510;10.170;2023-04-07T08:42:27;18.10;49.90
56336;DHT22;42241;53.510;10.170;2023-04-07T08:44:56;18.90;45.90
56336;DHT22;42241;53.510;10.170;2023-04-07T08:47:27;19.70;47.10
56336;DHT22;42241;53.510;10.170;2023-04-07T08:49:56;20.00;44.20
56336;DHT22;42241;53.510;10.170;2023-04-07T08:52:22;20.40;42.10
56336;DHT22;42241;53.510;10.170;2023-04-07T08:54:52;20.50;42.70
56336;DHT22;42241;53.510;10.170;2023-04-07T08:57:24;20.10;41.10
56336;DHT22;42241;53.510;10.170;2023-04-07T08:59:50;20.10;39.60
56336;DHT22;42241;53.510;10.170;2023-04-07T09:02:16;20.00;41.40
56336;DHT22;42241;53.510;10.170;2023-04-07T09:04:42;20.50;40.60
56336;DHT22;42241;53.510;10.170;2023-04-07T09:07:08;20.50;39.90
56336;DHT22;42241;53.510;10.170;2023-04-07T09:09:33;20.20;39.00
56336;DHT22;42241;53.510;10.170;2023-04-07T09:12:02;19.30;38.10
56336;DHT22;42241;53.510;10.170;2023-04-07T09:14:27;20.20;40.70
56336;DHT22;42241;53.510;10.170;2023-04-07T09:16:55;20.70;37.90
56336;DHT22;42241;53.510;10.170;2023-04-07T09:19:21;20.50;39.10
56336;DHT22;42241;53.510;10.170;2023-04-07T09:21:49;21.80;38.30
56336;DHT22;42241;53.510;10.170;2023-04-07T09:24:22;22.00;34.80
56336;DHT22;42241;53.510;10.170;2023-04-07T09:26:48;22.00;36.60
56336;DHT22;42241;53.510;10.170;2023-04-07T09:29:19;22.60;37.00
56336;DHT22;42241;53.510;10.170;2023-04-07T09:31:48;23.60;34.80
56336;DHT22;42241;53.510;10.170;2023-04-07T09:36:54;24.30;32.80
56336;DHT22;42241;53.510;10.170;2023-04-07T09:39:24;23.50;32.10
56336;DHT22;42241;53.510;10.170;2023-04-07T09:41:50;22.80;34.00
56336;DHT22;42241;53.510;10.170;2023-04-07T09:44:19;23.30;32.10
56336;DHT22;42241;53.510;10.170;2023-04-07T09:46:50;24.70;32.50
56336;DHT22;42241;53.510;10.170;2023-04-07T09:49:16;25.30;32.20
56336;DHT22;42241;53.510;10.170;2023-04-07T09:54:40;25.40;31.80
56336;DHT22;42241;53.510;10.170;2023-04-07T09:57:08;25.40;30.10
56336;DHT22;42241;53.510;10.170;2023-04-07T09:59:35;25.80;28.90
56336;DHT22;42241;53.510;10.170;2023-04-07T10:02:03;25.80;30.30
56336;DHT22;42241;53.510;10.170;2023-04-07T10:04:29;24.60;29.50
56336;DHT22;42241;53.510;10.170;2023-04-07T10:06:55;24.60;33.40
56336;DHT22;42241;53.510;10.170;2023-04-07T10:09:24;25.20;31.60
56336;DHT22;42241;53.510;10.170;2023-04-07T10:11:51;26.00;30.60
56336;DHT22;42241;53.510;10.170;2023-04-07T10:14:17;25.10;27.60
56336;DHT22;42241;53.510;10.170;2023-04-07T10:16:46;25.40;28.60
56336;DHT22;42241;53.510;10.170;2023-04-07T10:19:18;25.10;28.30
56336;DHT22;42241;53.510;10.170;2023-04-07T10:21:46;26.00;29.40
56336;DHT22;42241;53.510;10.170;2023-04-07T10:26:58;27.00;29.00
56336;DHT22;42241;53.510;10.170;2023-04-07T10:29:31;25.00;28.40
56336;DHT22;42241;53.510;10.170;2023-04-07T10:32:01;24.00;27.70
56336;DHT22;42241;53.510;10.170;2023-04-07T10:37:13;22.30;30.40
56336;DHT22;42241;53.510;10.170;2023-04-07T10:39:39;22.60;31.30
56336;DHT22;42241;53.510;10.170;2023-04-07T10:42:05;24.00;29.60
56336;DHT22;42241;53.510;10.170;2023-04-07T10:47:05;25.90;28.10
56336;DHT22;42241;53.510;10.170;2023-04-07T10:49:31;25.90;28.90
56336;DHT22;42241;53.510;10.170;2023-04-07T10:52:39;25.90;27.80
56336;DHT22;42241;53.510;10.170;2023-04-07T10:54:46;26.00;28.20
56336;DHT22;42241;53.510;10.170;2023-04-07T10:57:14;26.00;28.20
56336;DHT22;42241;53.510;10.170;2023-04-07T11:04:52;26.90;28.20
56336;DHT22;42241;53.510;10.170;2023-04-07T11:07:17;27.30;27.70
56336;DHT22;42241;53.510;10.170;2023-04-07T11:09:44;28.90;27.20
56336;DHT22;42241;53.510;10.170;2023-04-07T11:12:22;28.50;25.80
56336;DHT22;42241;53.510;10.170;2023-04-07T11:14:48;28.50;26.60
56336;DHT22;42241;53.510;10.170;2023-04-07T11:17:14;29.10;25.90
56336;DHT22;42241;53.510;10.170;2023-04-07T11:19:51;28.80;25.00
56336;DHT22;42241;53.510;10.170;2023-04-07T11:22:17;28.40;27.00
56336;DHT22;42241;53.510;10.170;2023-04-07T11:24:44;29.40;27.10
56336;DHT22;42241;53.510;10.170;2023-04-07T11:27:15;30.50;25.60
56336;DHT22;42241;53.510;10.170;2023-04-07T11:29:43;30.70;25.00
56336;DHT22;42241;53.510;10.170;2023-04-07T11:32:13;30.90;24.80
56336;DHT22;42241;53.510;10.170;2023-04-07T11:34:39;32.10;24.90
56336;DHT22;42241;53.510;10.170;2023-04-07T11:37:17;32.70;24.80
56336;DHT22;42241;53.510;10.170;2023-04-07T11:39:43;32.50;24.00
56336;DHT22;42241;53.510;10.170;2023-04-07T11:42:11;31.40;24.80
56336;DHT22;42241;53.510;10.170;2023-04-07T11:44:44;31.50;25.30
56336;DHT22;42241;53.510;10.170;2023-04-07T11:47:09;33.00;23.20
56336;DHT22;42241;53.510;10.170;2023-04-07T11:49:35;32.90;22.30
56336;DHT22;42241;53.510;10.170;2023-04-07T11:52:08;32.10;21.80
56336;DHT22;42241;53.510;10.170;2023-04-07T11:54:40;30.80;22.10
56336;DHT22;42241;53.510;10.170;2023-04-07T11:57:06;31.10;21.90
56336;DHT22;42241;53.510;10.170;2023-04-07T11:59:34;30.40;22.50
56336;DHT22;42241;53.510;10.170;2023-04-07T12:02:00;31.50;22.90
56336;DHT22;42241;53.510;10.170;2023-04-07T12:04:28;32.80;23.70
56336;DHT22;42241;53.510;10.170;2023-04-07T12:06:54;31.50;22.80
56336;DHT22;42241;53.510;10.170;2023-04-07T12:09:31;32.60;23.30
56336;DHT22;42241;53.510;10.170;2023-04-07T12:11:59;32.40;23.00
56336;DHT22;42241;53.510;10.170;2023-04-07T12:14:25;33.20;24.00
56336;DHT22;42241;53.510;10.170;2023-04-07T12:16:52;32.00;23.60
56336;DHT22;42241;53.510;10.170;2023-04-07T12:19:30;34.10;24.20
56336;DHT22;42241;53.510;10.170;2023-04-07T12:21:57;32.50;22.90
56336;DHT22;42241;53.510;10.170;2023-04-07T12:24:23;30.00;23.80
56336;DHT22;42241;53.510;10.170;2023-04-07T12:26:48;27.20;24.80
56336;DHT22;42241;53.510;10.170;2023-04-07T12:29:17;25.90;27.30
56336;DHT22;42241;53.510;10.170;2023-04-07T12:31:45;25.50;28.60
56336;DHT22;42241;53.510;10.170;2023-04-07T12:34:12;25.20;27.90
56336;DHT22;42241;53.510;10.170;2023-04-07T12:36:38;24.80;29.30
56336;DHT22;42241;53.510;10.170;2023-04-07T12:39:03;24.60;27.60
56336;DHT22;42241;53.510;10.170;2023-04-07T12:41:29;23.40;28.50
56336;DHT22;42241;53.510;10.170;2023-04-07T12:43:57;23.10;28.50
56336;DHT22;42241;53.510;10.170;2023-04-07T12:46:25;22.90;28.70
56336;DHT22;42241;53.510;10.170;2023-04-07T12:48:51;21.70;29.70
56336;DHT22;42241;53.510;10.170;2023-04-07T12:51:16;20.70;31.50
56336;DHT22;42241;53.510;10.170;2023-04-07T12:53:45;20.20;31.20
56336;DHT22;42241;53.510;10.170;2023-04-07T12:56:15;20.40;34.10
56336;DHT22;42241;53.510;10.170;2023-04-07T12:58:40;20.00;33.80
56336;DHT22;42241;53.510;10.170;2023-04-07T13:01:08;19.40;35.00
56336;DHT22;42241;53.510;10.170;2023-04-07T13:03:34;18.70;35.20
56336;DHT22;42241;53.510;10.170;2023-04-07T13:06:05;18.60;36.00
56336;DHT22;42241;53.510;10.170;2023-04-07T13:08:31;18.60;36.60
56336;DHT22;42241;53.510;10.170;2023-04-07T13:10:56;18.00;33.70
56336;DHT22;42241;53.510;10.170;2023-04-07T13:13:22;17.50;35.80
56336;DHT22;42241;53.510;10.170;2023-04-07T13:15:47;17.10;37.10
56336;DHT22;42241;53.510;10.170;2023-04-07T13:18:18;17.60;37.90
56336;DHT22;42241;53.510;10.170;2023-04-07T13:20:43;17.60;35.60
56336;DHT22;42241;53.510;10.170;2023-04-07T13:23:11;17.50;38.50
56336;DHT22;42241;53.510;10.170;2023-04-07T13:25:37;17.50;37.50
56336;DHT22;42241;53.510;10.170;2023-04-07T13:28:02;17.20;37.00
56336;DHT22;42241;53.510;10.170;2023-04-07T13:30:28;16.90;38.50
56336;DHT22;42241;53.510;10.170;2023-04-07T13:32:56;16.40;39.70
56336;DHT22;42241;53.510;10.170;2023-04-07T13:35:21;15.80;39.30
56336;DHT22;42241;53.510;10.170;2023-04-07T13:37:47;15.30;41.10
56336;DHT22;42241;53.510;10.170;2023-04-07T13:40:14;15.20;42.10
56336;DHT22;42241;53.510;10.170;2023-04-07T13:42:40;15.20;41.50
56336;DHT22;42241;53.510;10.170;2023-04-07T13:45:06;15.20;42.10
56336;DHT22;42241;53.510;10.170;2023-04-07T13:47:33;15.30;41.10
56336;DHT22;42241;53.510;10.170;2023-04-07T13:50:00;15.20;42.70
56336;DHT22;42241;53.510;10.170;2023-04-07T13:52:28;15.10;43.40
56336;DHT22;42241;53.510;10.170;2023-04-07T13:54:54;15.20;44.60
56336;DHT22;42241;53.510;10.170;2023-04-07T13:57:20;14.90;44.30
56336;DHT22;42241;53.510;10.170;2023-04-07T13:59:46;14.90;45.00
56336;DHT22;42241;53.510;10.170;2023-04-07T14:02:12;14.80;44.80
56336;DHT22;42241;53.510;10.170;2023-04-07T14:04:38;14.90;44.00
56336;DHT22;42241;53.510;10.170;2023-04-07T14:07:03;15.10;46.10
56336;DHT22;42241;53.510;10.170;2023-04-07T14:09:31;15.10;45.80
56336;DHT22;42241;53.510;10.170;2023-04-07T14:11:59;15.20;47.80
56336;DHT22;42241;53.510;10.170;2023-04-07T14:14:25;15.10;47.90
56336;DHT22;42241;53.510;10.170;2023-04-07T14:16:50;15.00;48.70
56336;DHT22;42241;53.510;10.170;2023-04-07T14:19:20;15.10;50.60
56336;DHT22;42241;53.510;10.170;2023-04-07T14:21:51;14.80;48.70
56336;DHT22;42241;53.510;10.170;2023-04-07T14:24:18;14.70;49.00
56336;DHT22;42241;53.510;10.170;2023-04-07T14:26:47;14.80;48.60
56336;DHT22;42241;53.510;10.170;2023-04-07T14:29:13;15.20;48.90
56336;DHT22;42241;53.510;10.170;2023-04-07T14:31:41;15.70;45.50
56336;DHT22;42241;53.510;10.170;2023-04-07T14:34:09;15.80;47.90
56336;DHT22;42241;53.510;10.170;2023-04-07T14:36:34;15.30;53.70
56336;DHT22;42241;53.510;10.170;2023-04-07T14:39:00;15.30;56.60
56336;DHT22;42241;53.510;10.170;2023-04-07T14:41:28;15.10;56.10
56336;DHT22;42241;53.510;10.170;2023-04-07T14:43:54;14.80;58.10
56336;DHT22;42241;53.510;10.170;2023-04-07T14:46:22;14.80;59.30
56336;DHT22;42241;53.510;10.170;2023-04-07T14:48:48;14.20;60.40
56336;DHT22;42241;53.510;10.170;2023-04-07T14:51:16;14.10;62.60
56336;DHT22;42241;53.510;10.170;2023-04-07T14:53:41;13.80;62.70
56336;DHT22;42241;53.510;10.170;2023-04-07T14:56:07;13.10;65.90
56336;DHT22;42241;53.510;10.170;2023-04-07T14:58:33;12.80;71.40
56336;DHT22;42241;53.510;10.170;2023-04-07T15:01:01;12.60;73.80
56336;DHT22;42241;53.510;10.170;2023-04-07T15:03:28;12.40;77.30
56336;DHT22;42241;53.510;10.170;2023-04-07T15:05:56;12.10;80.10
56336;DHT22;42241;53.510;10.170;2023-04-07T15:08:22;12.00;84.50
56336;DHT22;42241;53.510;10.170;2023-04-07T15:10:50;11.90;88.60
56336;DHT22;42241;53.510;10.170;2023-04-07T15:13:15;11.90;91.00
56336;DHT22;42241;53.510;10.170;2023-04-07T15:15:43;11.90;91.70
56336;DHT22;42241;53.510;10.170;2023-04-07T15:18:14;12.00;91.90
56336;DHT22;42241;53.510;10.170;2023-04-07T15:20:39;12.10;93.10
56336;DHT22;42241;53.510;10.170;2023-04-07T15:23:05;12.20;93.60
56336;DHT22;42241;53.510;10.170;2023-04-07T15:25:30;12.20;94.20
56336;DHT22;42241;53.510;10.170;2023-04-07T15:28:01;12.40;95.60
56336;DHT22;42241;53.510;10.170;2023-04-07T15:30:29;12.00;96.70
56336;DHT22;42241;53.510;10.170;2023-04-07T15:32:57;11.80;98.40
56336;DHT22;42241;53.510;10.170;2023-04-07T15:35:24;11.70;99.90
56336;DHT22;42241;53.510;10.170;2023-04-07T15:37:50;11.60;99.90
56336;DHT22;42241;53.510;10.170;2023-04-07T15:40:15;11.50;99.90
56336;DHT22;42241;53.510;10.170;2023-04-07T15:42:43;11.40;99.90
56336;DHT22;42241;53.510;10.170;2023-04-07T15:45:11;11.50;99.90
56336;DHT22;42241;53.510;10.170;2023-04-07T15:47:36;11.40;99.90
56336;DHT22;42241;53.510;10.170;2023-04-07T15:50:05;11.10;99.90
56336;DHT22;42241;53.510;10.170;2023-04-07T15:52:33;11.10;99.90